createdAt,value
2018-05-07T00:01:27.688Z,2.87
2018-05-07T00:03:55.776Z,2.53
2018-05-07T00:06:23.933Z,2.73
2018-05-07T00:08:52.047Z,3.70
2018-05-07T00:11:20.161Z,2.70
2018-05-07T00:13:48.293Z,3.60
2018-05-07T00:16:16.410Z,2.50
2018-05-07T00:18:44.509Z,3.40
2018-05-07T00:21:12.664Z,4.27
2018-05-07T00:23:40.781Z,5.93
2018-05-07T00:26:08.893Z,7.13
2018-05-07T00:28:37.041Z,5.40
2018-05-07T00:31:05.185Z,4.13
2018-05-07T00:33:33.292Z,5.10
2018-05-07T00:36:01.494Z,4.43
2018-05-07T00:38:29.532Z,3.77
2018-05-07T00:40:57.639Z,2.73
2018-05-07T00:43:25.826Z,4.03
2018-05-07T00:45:53.931Z,4.63
2018-05-07T00:48:22.051Z,4.57
2018-05-07T00:50:50.185Z,4.87
2018-05-07T00:53:18.297Z,4.40
2018-05-07T00:55:46.409Z,5.00
2018-05-07T00:58:14.541Z,5.23
2018-05-07T01:00:42.665Z,3.53
2018-05-07T01:03:10.762Z,4.47
2018-05-07T01:05:38.898Z,4.93
2018-05-07T01:08:07.013Z,3.63
2018-05-07T01:10:35.114Z,3.67
2018-05-07T01:13:03.231Z,2.70
2018-05-07T01:15:31.377Z,4.30
2018-05-07T01:17:59.499Z,4.10
2018-05-07T01:20:27.602Z,4.70
2018-05-07T01:22:55.726Z,3.23
2018-05-07T01:25:23.859Z,4.13
2018-05-07T01:27:51.985Z,3.90
2018-05-07T01:30:20.101Z,4.03
2018-05-07T01:32:48.198Z,3.27
2018-05-07T01:35:16.350Z,4.43
2018-05-07T01:37:44.467Z,4.80
2018-05-07T01:40:12.562Z,4.67
2018-05-07T01:42:41.342Z,4.80
2018-05-07T01:45:09.448Z,4.03
2018-05-07T01:47:37.588Z,5.07
2018-05-07T01:50:05.721Z,3.90
2018-05-07T01:52:33.842Z,5.27
2018-05-07T01:55:01.993Z,5.17
2018-05-07T01:57:30.101Z,5.10
2018-05-07T01:59:58.223Z,7.50
2018-05-07T02:02:26.349Z,4.97
2018-05-07T02:04:54.470Z,5.10
2018-05-07T02:07:22.585Z,4.27
2018-05-07T02:09:50.696Z,4.67
2018-05-07T02:12:18.807Z,5.80
2018-05-07T02:14:46.925Z,4.77
2018-05-07T02:17:15.045Z,4.50
2018-05-07T02:19:43.313Z,4.27
2018-05-07T02:22:11.428Z,5.27
2018-05-07T02:24:39.544Z,5.30
2018-05-07T02:27:07.698Z,4.77
2018-05-07T02:29:35.825Z,6.63
2018-05-07T02:32:03.937Z,7.07
2018-05-07T02:34:32.065Z,5.03
2018-05-07T02:37:00.181Z,6.53
2018-05-07T02:39:28.293Z,4.60
2018-05-07T02:41:56.429Z,4.77
2018-05-07T02:44:24.524Z,5.13
2018-05-07T02:46:52.650Z,7.63
2018-05-07T02:49:21.691Z,4.87
2018-05-07T02:51:49.810Z,5.57
2018-05-07T02:54:18.155Z,5.50
2018-05-07T02:56:46.267Z,5.27
2018-05-07T02:59:16.271Z,5.67
2018-05-07T03:01:44.386Z,6.80
2018-05-07T03:04:12.540Z,6.87
2018-05-07T03:06:40.654Z,6.13
2018-05-07T03:09:08.769Z,7.07
2018-05-07T03:11:36.909Z,7.93
2018-05-07T03:14:05.015Z,6.77
2018-05-07T03:16:33.129Z,5.33
2018-05-07T03:19:01.275Z,7.30
2018-05-07T03:21:29.405Z,7.20
2018-05-07T03:23:57.509Z,9.03
2018-05-07T03:26:25.637Z,6.87
2018-05-07T03:28:53.756Z,6.07
2018-05-07T03:31:21.888Z,7.50
2018-05-07T03:33:49.999Z,4.80
2018-05-07T03:36:18.141Z,12.90
2018-05-07T03:38:46.267Z,6.80
2018-05-07T03:41:14.375Z,7.83
2018-05-07T03:43:42.497Z,8.63
2018-05-07T03:46:10.644Z,5.97
2018-05-07T03:48:38.794Z,7.33
2018-05-07T03:51:06.905Z,9.03
2018-05-07T03:53:35.033Z,6.33
2018-05-07T03:56:03.351Z,7.90
2018-05-07T03:58:31.487Z,7.10
2018-05-07T04:00:59.601Z,5.10
2018-05-07T04:03:27.728Z,6.87
2018-05-07T04:05:56.701Z,6.93
2018-05-07T04:08:24.817Z,7.10
2018-05-07T04:10:52.945Z,7.30
2018-05-07T04:13:21.058Z,8.07
2018-05-07T04:15:49.177Z,6.97
2018-05-07T04:18:28.961Z,7.37
2018-05-07T04:24:04.571Z,5.17
2018-05-07T04:26:32.713Z,5.70
2018-05-07T04:29:00.804Z,6.50
2018-05-07T04:31:28.918Z,7.63
2018-05-07T04:33:57.052Z,6.03
2018-05-07T04:36:25.198Z,6.93
2018-05-07T04:38:53.315Z,7.63
2018-05-07T04:41:21.442Z,6.87
2018-05-07T04:43:49.553Z,8.57
2018-05-07T04:46:17.700Z,7.73
2018-05-07T04:48:45.844Z,6.57
2018-05-07T04:51:13.909Z,5.40
2018-05-07T04:53:42.076Z,5.87
2018-05-07T04:56:10.200Z,7.00
2018-05-07T04:58:38.299Z,8.27
2018-05-07T05:01:06.427Z,7.20
2018-05-07T05:03:34.548Z,12.13
2018-05-07T05:06:02.681Z,7.77
2018-05-07T05:08:30.806Z,13.83
2018-05-07T05:10:58.956Z,8.93
2018-05-07T05:13:27.069Z,8.90
2018-05-07T05:15:55.219Z,11.03
2018-05-07T05:18:23.337Z,10.90
2018-05-07T05:20:51.449Z,10.10
2018-05-07T05:23:19.743Z,12.30
2018-05-07T05:25:47.868Z,13.53
2018-05-07T05:28:15.989Z,12.43
2018-05-07T05:30:47.157Z,9.63
2018-05-07T05:33:15.299Z,10.43
2018-05-07T05:35:43.419Z,10.97
2018-05-07T05:38:11.549Z,14.23
2018-05-07T05:40:39.765Z,10.73
2018-05-07T05:43:07.884Z,11.53
2018-05-07T05:45:36.094Z,10.67
2018-05-07T05:48:04.295Z,12.53
2018-05-07T05:50:32.417Z,15.97
2018-05-07T05:53:03.588Z,9.20
2018-05-07T05:55:31.689Z,8.47
2018-05-07T05:57:59.805Z,9.00
2018-05-07T06:00:27.941Z,13.10
2018-05-07T06:02:56.065Z,10.77
2018-05-07T06:05:24.185Z,10.03
2018-05-07T06:07:52.313Z,9.53
2018-05-07T06:10:20.437Z,9.20
2018-05-07T06:12:48.568Z,10.77
2018-05-07T06:15:16.736Z,10.10
2018-05-07T06:17:44.819Z,11.43
2018-05-07T06:20:12.950Z,7.73
2018-05-07T06:22:41.099Z,12.70
2018-05-07T06:25:09.219Z,12.80
2018-05-07T06:27:37.338Z,9.47
2018-05-07T06:30:05.469Z,10.33
2018-05-07T06:32:33.619Z,10.83
2018-05-07T06:35:01.828Z,9.73
2018-05-07T06:37:29.957Z,8.40
2018-05-07T06:39:58.076Z,10.97
2018-05-07T06:42:26.170Z,8.97
2018-05-07T06:44:54.329Z,10.23
2018-05-07T06:47:22.442Z,9.87
2018-05-07T06:49:50.557Z,8.73
2018-05-07T06:52:18.683Z,8.87
2018-05-07T06:54:46.850Z,8.83
2018-05-07T06:57:14.957Z,11.97
2018-05-07T06:59:43.328Z,6.77
2018-05-07T07:02:11.584Z,8.30
2018-05-07T07:04:39.615Z,8.03
2018-05-07T07:07:08.069Z,9.37
2018-05-07T07:09:39.600Z,7.00
2018-05-07T07:12:07.707Z,8.60
2018-05-07T07:14:35.849Z,9.77
2018-05-07T07:17:03.973Z,9.03
2018-05-07T07:19:32.098Z,5.93
2018-05-07T07:22:00.263Z,8.37
2018-05-07T07:24:28.398Z,7.77
2018-05-07T07:26:56.511Z,6.40
2018-05-07T07:29:24.665Z,8.17
2018-05-07T07:31:52.803Z,10.80
2018-05-07T07:34:20.912Z,9.40
2018-05-07T07:36:49.059Z,7.77
2018-05-07T07:39:17.188Z,7.67
2018-05-07T07:41:45.315Z,8.87
2018-05-07T07:44:13.456Z,9.57
2018-05-07T07:46:41.573Z,8.83
2018-05-07T07:49:09.691Z,8.40
2018-05-07T07:51:37.807Z,9.37
2018-05-07T07:54:05.934Z,8.57
2018-05-07T07:56:34.027Z,5.93
2018-05-07T07:59:02.171Z,7.33
2018-05-07T08:01:30.281Z,8.53
2018-05-07T08:03:58.402Z,8.40
2018-05-07T08:06:26.506Z,9.17
2018-05-07T08:08:54.612Z,6.93
2018-05-07T08:11:22.748Z,7.40
2018-05-07T08:13:50.857Z,9.10
2018-05-07T08:16:18.973Z,7.20
2018-05-07T08:18:47.093Z,6.93
2018-05-07T08:21:15.234Z,7.47
2018-05-07T08:23:43.350Z,7.47
2018-05-07T08:26:11.461Z,7.53
2018-05-07T08:28:39.579Z,8.20
2018-05-07T08:31:07.696Z,6.23
2018-05-07T08:33:35.796Z,6.67
2018-05-07T08:36:03.911Z,6.73
2018-05-07T08:38:32.037Z,6.13
2018-05-07T08:41:00.134Z,6.73
2018-05-07T08:43:28.257Z,11.10
2018-05-07T08:45:56.373Z,5.70
2018-05-07T08:48:24.491Z,5.23
2018-05-07T08:50:52.662Z,10.40
2018-05-07T08:53:20.805Z,7.40
2018-05-07T08:55:48.933Z,6.63
2018-05-07T08:58:17.064Z,4.53
2018-05-07T09:00:45.208Z,7.17
2018-05-07T09:03:13.317Z,6.93
2018-05-07T09:05:41.464Z,9.90
2018-05-07T09:08:09.582Z,9.63
2018-05-07T09:10:37.703Z,6.80
2018-05-07T09:13:05.849Z,9.60
2018-05-07T09:15:33.987Z,6.17
2018-05-07T09:18:02.093Z,7.77
2018-05-07T09:20:30.225Z,3.87
2018-05-07T09:22:58.323Z,7.80
2018-05-07T09:25:26.455Z,5.30
2018-05-07T09:27:54.601Z,5.53
2018-05-07T09:30:26.102Z,5.57
2018-05-07T09:32:54.221Z,4.67
2018-05-07T09:35:22.346Z,6.03
2018-05-07T09:37:50.479Z,4.63
2018-05-07T09:40:18.579Z,4.67
2018-05-07T09:42:46.689Z,4.80
2018-05-07T09:45:14.863Z,6.07
2018-05-07T09:47:43.030Z,5.57
2018-05-07T09:50:11.199Z,6.20
2018-05-07T09:52:39.392Z,4.93
2018-05-07T09:55:07.976Z,5.73
2018-05-07T09:57:36.081Z,6.87
2018-05-07T10:00:04.283Z,4.97
2018-05-07T10:02:32.437Z,6.73
2018-05-07T10:05:00.528Z,5.33
2018-05-07T10:07:28.649Z,11.63
2018-05-07T10:09:56.764Z,4.87
2018-05-07T10:12:24.915Z,4.27
2018-05-07T10:14:53.105Z,6.03
2018-05-07T10:17:21.221Z,5.10
2018-05-07T10:19:49.344Z,5.63
2018-05-07T10:22:17.460Z,4.20
2018-05-07T10:24:45.566Z,5.63
2018-05-07T10:27:13.690Z,8.47
2018-05-07T10:29:41.784Z,5.07
2018-05-07T10:32:09.905Z,3.57
2018-05-07T10:34:38.234Z,5.60
2018-05-07T10:37:06.356Z,2.73
2018-05-07T10:39:34.464Z,4.03
2018-05-07T10:42:02.607Z,3.97
2018-05-07T10:44:30.721Z,4.57
2018-05-07T10:46:58.837Z,4.03
2018-05-07T10:49:26.960Z,5.97
2018-05-07T10:51:55.096Z,2.73
2018-05-07T10:54:23.214Z,5.07
2018-05-07T10:56:51.518Z,5.93
2018-05-07T10:59:19.891Z,3.20
2018-05-07T11:01:48.051Z,4.70
2018-05-07T11:04:16.335Z,5.40
2018-05-07T11:06:44.462Z,5.57
2018-05-07T11:09:13.227Z,3.27
2018-05-07T11:11:41.347Z,3.13
2018-05-07T11:14:09.446Z,5.80
2018-05-07T11:16:37.577Z,2.87
2018-05-07T11:19:05.720Z,4.30
2018-05-07T11:21:33.814Z,3.83
2018-05-07T11:24:01.934Z,4.87
2018-05-07T11:26:30.080Z,3.43
2018-05-07T11:28:58.198Z,4.77
2018-05-07T11:31:26.295Z,6.27
2018-05-07T11:33:54.449Z,4.43
2018-05-07T11:36:25.792Z,5.80
2018-05-07T11:38:53.923Z,6.10
2018-05-07T11:41:22.034Z,7.37
2018-05-07T11:43:50.171Z,2.53
2018-05-07T11:46:18.262Z,3.33
2018-05-07T11:48:46.386Z,3.13
2018-05-07T11:51:14.508Z,4.77
2018-05-07T11:53:42.628Z,4.03
2018-05-07T11:56:10.806Z,5.23
2018-05-07T11:58:38.931Z,4.40
2018-05-07T12:01:07.113Z,7.67
2018-05-07T12:03:35.177Z,5.90
2018-05-07T12:06:06.597Z,3.77
2018-05-07T12:08:34.740Z,5.10
2018-05-07T12:11:03.075Z,3.77
2018-05-07T12:13:31.193Z,3.37
2018-05-07T12:15:59.385Z,5.83
2018-05-07T12:18:27.437Z,3.23
2018-05-07T12:20:55.587Z,6.40
2018-05-07T12:23:23.684Z,5.03
2018-05-07T12:25:51.794Z,4.13
2018-05-07T12:28:19.894Z,4.07
2018-05-07T12:30:48.017Z,5.77
2018-05-07T12:33:16.159Z,5.03
2018-05-07T12:35:46.240Z,4.77
2018-05-07T12:38:14.364Z,8.67
2018-05-07T12:40:42.684Z,4.80
2018-05-07T12:43:10.818Z,4.93
2018-05-07T12:45:39.121Z,4.23
2018-05-07T12:48:07.925Z,3.90
2018-05-07T12:50:36.038Z,5.60
2018-05-07T12:53:04.155Z,4.60
2018-05-07T12:55:32.282Z,3.43
2018-05-07T12:58:00.373Z,3.60
2018-05-07T13:00:28.527Z,2.73
2018-05-07T13:02:56.651Z,5.63
2018-05-07T13:05:24.787Z,5.90
2018-05-07T13:07:52.939Z,5.43
2018-05-07T13:10:21.069Z,5.47
2018-05-07T13:12:49.192Z,4.87
2018-05-07T13:15:17.299Z,3.90
2018-05-07T13:17:45.451Z,5.73
2018-05-07T13:20:16.828Z,3.10
2018-05-07T13:22:44.937Z,7.83
2018-05-07T13:25:13.078Z,4.77
2018-05-07T13:27:41.179Z,3.87
2018-05-07T13:30:09.312Z,5.13
2018-05-07T13:32:37.447Z,4.30
2018-05-07T13:35:05.541Z,4.63
2018-05-07T13:37:33.642Z,8.17
2018-05-07T13:40:01.783Z,4.07
2018-05-07T13:42:29.910Z,6.07
2018-05-07T13:44:58.022Z,3.17
2018-05-07T13:47:26.149Z,4.53
2018-05-07T13:49:54.270Z,3.87
2018-05-07T13:52:22.409Z,2.90
2018-05-07T13:54:50.522Z,4.10
2018-05-07T13:57:18.726Z,3.20
2018-05-07T13:59:46.818Z,4.23
2018-05-07T14:02:14.945Z,3.17
2018-05-07T14:04:43.076Z,3.83
2018-05-07T14:07:11.200Z,4.90
2018-05-07T14:09:39.344Z,5.77
2018-05-07T14:12:08.339Z,4.63
2018-05-07T14:14:36.476Z,3.97
2018-05-07T14:17:04.589Z,3.03
2018-05-07T14:19:32.723Z,2.87
2018-05-07T14:22:00.858Z,4.93
2018-05-07T14:24:28.962Z,6.20
2018-05-07T14:26:57.066Z,8.20
2018-05-07T14:29:25.193Z,3.70
2018-05-07T14:31:53.327Z,4.33
2018-05-07T14:34:21.459Z,3.37
2018-05-07T14:36:49.590Z,2.93
2018-05-07T14:39:17.776Z,4.47
2018-05-07T14:41:45.965Z,3.20
2018-05-07T14:44:14.130Z,3.47
2018-05-07T14:46:42.313Z,7.20
2018-05-07T14:49:10.410Z,3.63
2018-05-07T14:51:38.524Z,2.37
2018-05-07T14:54:06.845Z,5.27
2018-05-07T14:56:34.975Z,3.77
2018-05-07T14:59:03.085Z,3.67
2018-05-07T15:01:31.235Z,10.10
2018-05-07T15:03:59.346Z,2.17
2018-05-07T15:06:27.464Z,5.47
2018-05-07T15:08:55.608Z,5.43
2018-05-07T15:11:23.776Z,5.97
2018-05-07T15:16:48.058Z,4.77
2018-05-07T15:19:16.191Z,4.60
2018-05-07T15:21:44.320Z,4.17
2018-05-07T15:24:15.883Z,8.23
2018-05-07T15:26:44.253Z,5.23
2018-05-07T15:29:12.414Z,7.50
2018-05-07T15:31:40.543Z,6.17
2018-05-07T15:34:08.651Z,3.30
2018-05-07T15:36:36.768Z,5.93
2018-05-07T15:39:05.826Z,2.63
2018-05-07T15:41:33.970Z,2.97
2018-05-07T15:44:02.090Z,5.47
2018-05-07T15:46:30.179Z,5.37
2018-05-07T15:48:58.294Z,3.67
2018-05-07T15:51:26.429Z,3.87
2018-05-07T15:53:54.539Z,4.20
2018-05-07T15:56:22.654Z,4.07
2018-05-07T15:58:50.768Z,8.53
2018-05-07T16:01:18.886Z,4.87
2018-05-07T16:03:47.017Z,3.27
2018-05-07T16:06:15.150Z,4.43
2018-05-07T16:08:43.319Z,4.90
2018-05-07T16:11:11.362Z,3.27
2018-05-07T16:13:39.499Z,6.03
2018-05-07T16:16:07.626Z,3.47
2018-05-07T16:18:35.775Z,7.70
2018-05-07T16:21:03.897Z,5.77
2018-05-07T16:23:32.206Z,3.20
2018-05-07T16:26:03.473Z,4.93
2018-05-07T16:28:31.589Z,7.00
2018-05-07T16:30:59.777Z,4.27
2018-05-07T16:33:27.852Z,3.57
2018-05-07T16:35:55.965Z,4.83
2018-05-07T16:38:24.070Z,3.13
2018-05-07T16:40:52.211Z,3.37
2018-05-07T16:43:20.345Z,3.67
2018-05-07T16:45:48.442Z,3.50
2018-05-07T16:48:16.575Z,6.17
2018-05-07T16:50:45.639Z,4.63
2018-05-07T16:53:13.796Z,3.83
2018-05-07T16:55:41.956Z,3.37
2018-05-07T16:58:10.101Z,3.07
2018-05-07T17:00:38.213Z,4.37
2018-05-07T17:03:06.339Z,5.30
2018-05-07T17:05:34.440Z,2.80
2018-05-07T17:08:02.592Z,3.57
2018-05-07T17:10:34.207Z,2.50
2018-05-07T17:13:02.327Z,3.53
2018-05-07T17:15:30.437Z,4.47
2018-05-07T17:18:02.131Z,3.23
2018-05-07T17:20:30.245Z,4.30
2018-05-07T17:22:58.356Z,6.03
2018-05-07T17:25:26.506Z,4.33
2018-05-07T17:27:54.633Z,4.73
2018-05-07T17:30:22.771Z,3.87
2018-05-07T17:32:50.955Z,4.40
2018-05-07T17:35:19.015Z,4.60
2018-05-07T17:37:47.129Z,9.53
2018-05-07T17:40:15.251Z,3.47
2018-05-07T17:42:43.379Z,5.90
2018-05-07T17:45:27.410Z,4.20
2018-05-07T17:48:07.362Z,4.87
2018-05-07T17:50:35.414Z,2.20
2018-05-07T17:53:03.529Z,4.10
2018-05-07T17:55:31.662Z,5.20
2018-05-07T17:57:59.799Z,4.87
2018-05-07T18:00:27.923Z,5.10
2018-05-07T18:02:56.068Z,5.10
2018-05-07T18:05:24.187Z,4.53
2018-05-07T18:07:52.300Z,3.00
2018-05-07T18:10:20.500Z,5.10
2018-05-07T18:12:48.548Z,2.33
2018-05-07T18:15:16.660Z,2.87
2018-05-07T18:17:46.705Z,3.27
2018-05-07T18:20:14.852Z,2.37
2018-05-07T18:22:42.946Z,4.67
2018-05-07T18:25:11.111Z,6.70
2018-05-07T18:27:39.213Z,4.93
2018-05-07T18:30:07.330Z,3.07
2018-05-07T18:32:35.462Z,7.87
2018-05-07T18:35:03.591Z,6.33
2018-05-07T18:37:31.712Z,3.23
2018-05-07T18:39:59.836Z,4.03
2018-05-07T18:42:27.961Z,4.17
2018-05-07T18:44:56.096Z,3.50
2018-05-07T18:47:24.223Z,2.57
2018-05-07T18:49:52.354Z,2.90
2018-05-07T18:52:20.474Z,4.60
2018-05-07T18:54:48.619Z,4.53
2018-05-07T18:57:16.895Z,2.73
2018-05-07T18:59:45.051Z,3.10
2018-05-07T19:02:13.185Z,3.50
2018-05-07T19:04:41.448Z,2.10
2018-05-07T19:07:09.616Z,3.07
2018-05-07T19:09:41.297Z,4.00
2018-05-07T19:12:09.402Z,2.80
2018-05-07T19:14:37.552Z,4.53
2018-05-07T19:17:05.693Z,7.00
2018-05-07T19:19:33.791Z,3.20
2018-05-07T19:22:03.795Z,4.33
2018-05-07T19:24:31.957Z,3.17
2018-05-07T19:27:00.075Z,4.83
2018-05-07T19:29:28.211Z,3.40
2018-05-07T19:31:56.318Z,3.67
2018-05-07T19:34:24.449Z,6.57
2018-05-07T19:36:52.595Z,3.97
2018-05-07T19:39:20.853Z,7.13
2018-05-07T19:41:48.981Z,4.93
2018-05-07T19:44:17.105Z,4.90
2018-05-07T19:46:45.220Z,2.67
2018-05-07T19:49:13.346Z,7.13
2018-05-07T19:51:41.479Z,5.90
2018-05-07T19:54:09.606Z,3.40
2018-05-07T19:56:37.702Z,6.00
2018-05-07T19:59:05.839Z,6.37
2018-05-07T20:01:33.968Z,4.70
2018-05-07T20:04:02.095Z,4.70
2018-05-07T20:06:30.209Z,3.33
2018-05-07T20:08:58.332Z,5.73
2018-05-07T20:11:26.468Z,4.20
2018-05-07T20:13:54.771Z,4.63
2018-05-07T20:16:22.876Z,5.60
2018-05-07T20:18:51.007Z,4.63
2018-05-07T20:21:19.126Z,4.30
2018-05-07T20:23:47.295Z,5.57
2018-05-07T20:26:15.458Z,5.00
2018-05-07T20:28:43.613Z,5.57
2018-05-07T20:31:11.754Z,4.03
2018-05-07T20:33:39.846Z,3.47
2018-05-07T20:36:08.028Z,4.37
2018-05-07T20:38:36.414Z,4.03
2018-05-07T20:41:04.506Z,5.17
2018-05-07T20:43:32.704Z,3.10
2018-05-07T20:46:00.895Z,2.73
2018-05-07T20:48:28.998Z,3.30
2018-05-07T20:50:57.160Z,3.33
2018-05-07T20:53:28.801Z,2.60
2018-05-07T20:55:56.917Z,5.63
2018-05-07T20:58:25.052Z,4.07
2018-05-07T21:00:53.179Z,2.63
2018-05-07T21:03:21.289Z,3.40
2018-05-07T21:05:49.409Z,9.50
2018-05-07T21:08:17.729Z,4.83
2018-05-07T21:10:45.880Z,3.80
2018-05-07T21:13:14.102Z,4.60
2018-05-07T21:15:45.390Z,3.37
2018-05-07T21:18:13.506Z,4.90
2018-05-07T21:20:41.657Z,3.40
2018-05-07T21:23:09.799Z,3.13
2018-05-07T21:25:37.933Z,2.47
2018-05-07T21:28:06.141Z,2.57
2018-05-07T21:30:34.270Z,3.43
2018-05-07T21:33:02.425Z,5.07
2018-05-07T21:35:31.466Z,3.80
2018-05-07T21:37:59.597Z,6.23
2018-05-07T21:40:27.719Z,2.67
2018-05-07T21:42:56.944Z,4.50
2018-05-07T21:45:25.065Z,3.30
2018-05-07T21:47:53.163Z,4.27
2018-05-07T21:50:21.594Z,8.63
2018-05-07T21:52:49.841Z,3.43
2018-05-07T21:55:17.949Z,3.67
2018-05-07T21:57:46.087Z,4.50
2018-05-07T22:00:14.413Z,4.20
2018-05-07T22:02:42.510Z,3.83
2018-05-07T22:05:10.633Z,3.97
2018-05-07T22:07:38.764Z,3.43
2018-05-07T22:10:06.883Z,4.30
2018-05-07T22:12:35.074Z,4.23
2018-05-07T22:15:03.523Z,3.93
2018-05-07T22:17:31.707Z,5.40
2018-05-07T22:19:59.835Z,4.33
2018-05-07T22:22:27.980Z,5.70
2018-05-07T22:24:56.113Z,4.77
2018-05-07T22:27:24.249Z,3.83
2018-05-07T22:29:52.369Z,5.47
2018-05-07T22:32:20.492Z,3.13
2018-05-07T22:34:48.640Z,4.90
2018-05-07T22:37:16.979Z,6.37
2018-05-07T22:39:45.119Z,3.67
2018-05-07T22:42:13.190Z,3.87
2018-05-07T22:44:41.346Z,5.90
2018-05-07T22:47:09.581Z,6.13
2018-05-07T22:49:37.754Z,3.10
2018-05-07T22:52:05.908Z,7.27
2018-05-07T22:54:34.043Z,3.53
2018-05-07T22:57:02.157Z,4.37
2018-05-07T22:59:30.280Z,5.40
2018-05-07T23:01:58.403Z,6.70
2018-05-07T23:04:26.517Z,7.93
2018-05-07T23:06:54.638Z,3.77
2018-05-07T23:09:22.749Z,4.60
2018-05-07T23:11:50.879Z,4.87
2018-05-07T23:14:19.407Z,3.30
2018-05-07T23:16:47.542Z,4.93
2018-05-07T23:19:15.666Z,4.83
2018-05-07T23:21:43.801Z,3.93
2018-05-07T23:24:11.913Z,5.43
2018-05-07T23:26:40.055Z,3.13
2018-05-07T23:29:08.182Z,5.13
2018-05-07T23:31:36.518Z,4.07
2018-05-07T23:34:04.631Z,6.90
2018-05-07T23:36:32.993Z,4.10
2018-05-07T23:39:01.121Z,5.10
2018-05-07T23:41:29.215Z,6.17
2018-05-07T23:43:57.349Z,5.83
2018-05-07T23:46:25.473Z,3.07
2018-05-07T23:48:53.589Z,7.30
2018-05-07T23:51:21.938Z,4.47
2018-05-07T23:53:50.030Z,2.77
2018-05-07T23:56:18.150Z,4.20
2018-05-07T23:58:46.295Z,3.10
